Time;durP1;ratioP1;P1;durP2;ratioP2;P2;SDS_P1;SDS_P2;PMS_P1;PMS_P2;Temp;Humidity;BMP_temperature;BMP_pressure;BME280_temperature;BME280_humidity;BME280_pressure;Samples;Min_cycle;Max_cycle;Signal;HPM_P1;HPM_P2
2022/04/13 00:00:59;;;;;;;1.80;0.73;;;;;;;;;;6206330;23;20039;-46
2022/04/13 00:03:25;;;;;;;1.90;0.75;;;;;;;;;;6205152;23;20008;-47
2022/04/13 00:05:51;;;;;;;1.42;0.70;;;;;;;;;;6205720;23;20516;-48
2022/04/13 00:08:17;;;;;;;2.05;0.70;;;;;;;;;;6205725;23;20501;-47
2022/04/13 00:10:44;;;;;;;1.42;0.70;;;;;;;;;;6205585;23;20434;-49
2022/04/13 00:13:10;;;;;;;1.27;0.77;;;;;;;;;;6205730;23;20031;-47
2022/04/13 00:15:37;;;;;;;1.17;0.55;;;;;;;;;;6205759;23;20004;-50
2022/04/13 00:18:07;;;;;;;2.20;0.73;;;;;;;;;;6205094;23;20506;-45
2022/04/13 00:20:34;;;;;;;1.48;0.70;;;;;;;;;;6205689;23;20004;-46
2022/04/13 00:23:01;;;;;;;2.03;0.90;;;;;;;;;;6205949;23;20459;-48
2022/04/13 00:25:28;;;;;;;0.95;0.65;;;;;;;;;;6205295;23;20005;-48
2022/04/13 00:27:54;;;;;;;1.85;0.60;;;;;;;;;;6205938;23;20054;-48
2022/04/13 00:30:21;;;;;;;0.95;0.70;;;;;;;;;;6205437;23;20001;-48
2022/04/13 00:32:47;;;;;;;0.90;0.60;;;;;;;;;;6205557;23;20003;-48
2022/04/13 00:35:13;;;;;;;0.98;0.68;;;;;;;;;;6206646;23;20004;-49
2022/04/13 00:37:40;;;;;;;1.88;0.80;;;;;;;;;;6205651;23;20038;-48
2022/04/13 00:40:07;;;;;;;3.65;1.15;;;;;;;;;;6205879;23;20042;-48
2022/04/13 00:42:33;;;;;;;3.03;0.93;;;;;;;;;;6205262;23;20023;-48
2022/04/13 00:45:00;;;;;;;2.15;0.90;;;;;;;;;;6205836;23;20008;-47
2022/04/13 00:47:27;;;;;;;1.35;0.90;;;;;;;;;;6204750;23;20032;-49
2022/04/13 00:49:54;;;;;;;1.63;0.82;;;;;;;;;;6205676;23;19997;-46
2022/04/13 00:52:23;;;;;;;1.95;0.95;;;;;;;;;;6205453;23;20076;-48
2022/04/13 00:54:51;;;;;;;2.25;0.93;;;;;;;;;;6205235;23;19997;-46
2022/04/13 00:57:19;;;;;;;3.35;1.00;;;;;;;;;;6205379;23;19996;-46
2022/04/13 00:59:48;;;;;;;3.33;1.20;;;;;;;;;;6206067;23;20022;-47
2022/04/13 01:02:16;;;;;;;2.75;0.90;;;;;;;;;;6205712;23;20066;-48
2022/04/13 01:04:46;;;;;;;2.20;1.02;;;;;;;;;;6205656;23;20083;-48
2022/04/13 01:07:12;;;;;;;4.72;0.90;;;;;;;;;;6206111;23;20465;-49
2022/04/13 01:09:40;;;;;;;5.10;1.40;;;;;;;;;;6205170;23;20001;-46
2022/04/13 01:12:06;;;;;;;5.32;1.58;;;;;;;;;;6205441;23;20000;-50
2022/04/13 01:14:34;;;;;;;5.07;1.60;;;;;;;;;;6205053;23;20024;-50
2022/04/13 01:17:01;;;;;;;5.10;1.45;;;;;;;;;;6178260;23;20009;-51
2022/04/13 01:19:28;;;;;;;8.82;1.88;;;;;;;;;;6205136;23;20001;-47
2022/04/13 01:21:58;;;;;;;8.27;2.20;;;;;;;;;;6205162;23;20286;-49
2022/04/13 01:24:25;;;;;;;9.80;2.28;;;;;;;;;;6205742;23;20011;-49
2022/04/13 01:26:52;;;;;;;8.18;2.35;;;;;;;;;;6205325;23;20069;-46
2022/04/13 01:29:18;;;;;;;7.90;2.25;;;;;;;;;;6205599;23;19997;-49
2022/04/13 01:31:45;;;;;;;7.78;2.17;;;;;;;;;;6205123;23;20004;-49
2022/04/13 01:34:13;;;;;;;6.00;2.28;;;;;;;;;;6205733;23;20416;-49
2022/04/13 01:36:40;;;;;;;6.82;1.67;;;;;;;;;;6203250;23;20000;-48
2022/04/13 01:39:08;;;;;;;6.22;1.65;;;;;;;;;;6205965;23;20015;-48
2022/04/13 01:41:34;;;;;;;4.53;1.48;;;;;;;;;;6202661;23;20004;-49
2022/04/13 01:44:00;;;;;;;6.97;1.50;;;;;;;;;;6205312;23;20000;-49
2022/04/13 01:46:26;;;;;;;6.30;1.83;;;;;;;;;;6204757;23;20055;-46
2022/04/13 01:48:52;;;;;;;6.35;1.52;;;;;;;;;;6205072;23;20004;-47
2022/04/13 01:51:20;;;;;;;5.65;1.73;;;;;;;;;;6204863;23;20342;-47
2022/04/13 01:53:46;;;;;;;5.50;1.80;;;;;;;;;;6204753;23;20132;-46
2022/04/13 01:56:12;;;;;;;7.05;1.73;;;;;;;;;;6205556;23;20020;-49
2022/04/13 01:58:38;;;;;;;6.40;1.92;;;;;;;;;;6204666;23;20005;-49
2022/04/13 02:01:04;;;;;;;5.20;1.70;;;;;;;;;;6204875;23;20004;-49
2022/04/13 02:03:30;;;;;;;5.45;1.70;;;;;;;;;;6204459;23;20008;-46
2022/04/13 02:05:57;;;;;;;5.10;1.60;;;;;;;;;;6205360;23;20740;-48
2022/04/13 02:08:23;;;;;;;6.28;1.73;;;;;;;;;;6205110;23;20025;-46
2022/04/13 02:10:49;;;;;;;3.92;1.50;;;;;;;;;;6204770;23;20004;-48
2022/04/13 02:13:16;;;;;;;6.43;1.77;;;;;;;;;;6205075;23;20001;-47
2022/04/13 02:15:43;;;;;;;2.50;1.10;;;;;;;;;;6205482;23;20031;-48
2022/04/13 02:18:09;;;;;;;7.32;1.63;;;;;;;;;;6205309;23;20001;-48
2022/04/13 02:20:35;;;;;;;3.28;1.20;;;;;;;;;;6204620;23;20004;-47
2022/04/13 02:23:04;;;;;;;3.53;1.27;;;;;;;;;;6204586;23;20565;-49
2022/04/13 02:25:30;;;;;;;2.95;1.15;;;;;;;;;;6204089;23;20469;-46
2022/04/13 02:27:56;;;;;;;3.78;1.38;;;;;;;;;;6204554;23;20004;-49
2022/04/13 02:30:22;;;;;;;1.75;1.15;;;;;;;;;;6204458;23;20821;-47
2022/04/13 02:32:48;;;;;;;3.97;1.33;;;;;;;;;;6204406;23;20076;-45
2022/04/13 02:35:15;;;;;;;4.53;1.13;;;;;;;;;;6205933;23;20446;-46
2022/04/13 02:37:43;;;;;;;2.78;1.10;;;;;;;;;;6207410;23;20023;-49
2022/04/13 02:40:10;;;;;;;4.10;1.13;;;;;;;;;;6207699;23;20004;-47
2022/04/13 02:42:36;;;;;;;3.78;1.70;;;;;;;;;;6206076;23;20457;-49
2022/04/13 02:45:06;;;;;;;4.38;1.10;;;;;;;;;;6206738;23;20008;-49
2022/04/13 02:47:32;;;;;;;6.72;1.65;;;;;;;;;;6206014;23;20005;-47
2022/04/13 02:50:00;;;;;;;4.93;1.40;;;;;;;;;;6207163;23;20005;-49
2022/04/13 02:52:30;;;;;;;2.00;0.85;;;;;;;;;;6206337;23;19997;-47
2022/04/13 02:54:56;;;;;;;2.75;1.20;;;;;;;;;;6206370;23;20005;-48
2022/04/13 02:57:22;;;;;;;1.67;0.98;;;;;;;;;;6206536;23;20015;-49
2022/04/13 02:59:49;;;;;;;2.92;1.30;;;;;;;;;;6206495;23;20380;-50
2022/04/13 03:02:15;;;;;;;3.35;1.13;;;;;;;;;;6206521;23;20003;-47
2022/04/13 03:04:48;;;;;;;4.97;1.38;;;;;;;;;;6207380;23;20013;-48
2022/04/13 03:07:17;;;;;;;5.47;1.55;;;;;;;;;;6206439;23;20012;-47
2022/04/13 03:09:44;;;;;;;2.47;1.10;;;;;;;;;;6207229;23;20079;-50
2022/04/13 03:12:11;;;;;;;3.65;1.42;;;;;;;;;;6207391;23;20004;-49
2022/04/13 03:14:39;;;;;;;4.00;1.30;;;;;;;;;;6206196;23;20005;-46
2022/04/13 03:17:05;;;;;;;3.78;0.95;;;;;;;;;;6205688;23;20222;-50
2022/04/13 03:19:31;;;;;;;4.22;1.20;;;;;;;;;;6206445;23;20060;-48
2022/04/13 03:21:57;;;;;;;2.25;1.00;;;;;;;;;;6206039;23;20035;-48
2022/04/13 03:24:23;;;;;;;6.22;1.60;;;;;;;;;;6206067;23;20009;-47
2022/04/13 03:26:50;;;;;;;3.90;1.40;;;;;;;;;;6206500;23;20004;-50
2022/04/13 03:29:16;;;;;;;2.80;1.20;;;;;;;;;;6205959;23;20024;-46
2022/04/13 03:31:43;;;;;;;3.13;1.05;;;;;;;;;;6206709;23;20004;-50
2022/04/13 03:34:10;;;;;;;1.67;1.02;;;;;;;;;;6204645;23;20056;-47
2022/04/13 03:36:39;;;;;;;2.38;1.02;;;;;;;;;;6206392;23;20004;-49
2022/04/13 03:39:06;;;;;;;2.67;0.90;;;;;;;;;;6205278;23;20442;-47
2022/04/13 03:41:32;;;;;;;2.40;0.77;;;;;;;;;;6205462;23;20009;-48
2022/04/13 03:43:58;;;;;;;2.72;1.13;;;;;;;;;;6205402;23;20015;-47
2022/04/13 03:46:24;;;;;;;1.35;0.80;;;;;;;;;;6206344;23;20004;-49
2022/04/13 03:48:50;;;;;;;1.23;0.77;;;;;;;;;;6206364;23;20229;-49
2022/04/13 03:51:17;;;;;;;2.67;1.08;;;;;;;;;;6178122;23;20070;-49
2022/04/13 03:53:43;;;;;;;2.50;0.88;;;;;;;;;;6179531;23;20004;-46
2022/04/13 03:56:09;;;;;;;2.22;1.10;;;;;;;;;;6205823;23;20122;-46
2022/04/13 03:58:36;;;;;;;1.77;0.63;;;;;;;;;;6206208;23;20360;-49
2022/04/13 04:01:03;;;;;;;1.55;0.77;;;;;;;;;;6206099;23;20039;-46
2022/04/13 04:03:29;;;;;;;2.58;1.02;;;;;;;;;;6205526;23;20004;-49
2022/04/13 04:05:55;;;;;;;1.42;0.88;;;;;;;;;;6206768;23;20016;-48
2022/04/13 04:08:21;;;;;;;1.70;0.68;;;;;;;;;;6205853;23;20008;-46
2022/04/13 04:10:48;;;;;;;1.42;0.68;;;;;;;;;;6206213;23;20001;-49
2022/04/13 04:13:15;;;;;;;0.98;0.60;;;;;;;;;;6205500;23;20012;-50
2022/04/13 04:15:41;;;;;;;1.27;0.68;;;;;;;;;;6205604;23;20004;-46
2022/04/13 04:18:08;;;;;;;1.17;0.63;;;;;;;;;;6179058;23;20009;-47
2022/04/13 04:20:34;;;;;;;1.25;0.60;;;;;;;;;;6205021;23;20362;-48
2022/04/13 04:23:00;;;;;;;1.15;0.65;;;;;;;;;;6205692;23;20004;-49
2022/04/13 04:25:26;;;;;;;1.38;0.55;;;;;;;;;;6205982;23;20068;-49
2022/04/13 04:27:52;;;;;;;0.63;0.55;;;;;;;;;;6206868;23;20027;-48
2022/04/13 04:30:18;;;;;;;1.17;0.60;;;;;;;;;;6204745;23;20004;-47
2022/04/13 04:32:44;;;;;;;1.73;0.70;;;;;;;;;;6205716;23;20067;-45
2022/04/13 04:35:10;;;;;;;1.02;0.60;;;;;;;;;;6205284;23;20012;-48
2022/04/13 04:37:36;;;;;;;0.57;0.55;;;;;;;;;;6205147;23;20007;-45
2022/04/13 04:40:03;;;;;;;1.63;0.75;;;;;;;;;;6205090;23;20013;-48
2022/04/13 04:42:29;;;;;;;1.23;0.75;;;;;;;;;;6204708;23;20011;-45
2022/04/13 04:44:57;;;;;;;1.98;0.70;;;;;;;;;;6207443;23;20036;-46
2022/04/13 04:47:23;;;;;;;1.52;0.90;;;;;;;;;;6207308;23;20045;-46
2022/04/13 04:49:49;;;;;;;1.58;0.90;;;;;;;;;;6206926;23;20000;-48
2022/04/13 04:52:15;;;;;;;1.20;0.77;;;;;;;;;;6206441;23;20454;-49
2022/04/13 04:54:41;;;;;;;1.75;0.75;;;;;;;;;;6207183;23;20004;-48
2022/04/13 04:57:11;;;;;;;1.02;0.60;;;;;;;;;;6206282;23;20005;-46
2022/04/13 04:59:37;;;;;;;1.52;0.80;;;;;;;;;;6206294;23;20000;-49
2022/04/13 05:02:03;;;;;;;1.05;0.63;;;;;;;;;;6207380;23;20103;-47
2022/04/13 05:04:29;;;;;;;2.15;0.90;;;;;;;;;;6206834;23;20083;-50
2022/04/13 05:06:55;;;;;;;2.58;0.98;;;;;;;;;;6207976;23;20039;-47
2022/04/13 05:09:22;;;;;;;1.38;0.80;;;;;;;;;;6207081;23;20038;-50
2022/04/13 05:11:48;;;;;;;2.13;1.45;;;;;;;;;;6205386;23;20453;-46
2022/04/13 05:14:16;;;;;;;1.80;1.10;;;;;;;;;;6206593;23;20008;-48
2022/04/13 05:16:42;;;;;;;2.72;1.20;;;;;;;;;;6205634;23;20059;-49
2022/04/13 05:19:08;;;;;;;1.88;1.17;;;;;;;;;;6205311;23;20471;-47
2022/04/13 05:21:34;;;;;;;2.67;0.95;;;;;;;;;;6205068;23;20087;-49
2022/04/13 05:24:00;;;;;;;1.35;0.98;;;;;;;;;;6205395;23;20099;-50
2022/04/13 05:26:26;;;;;;;1.50;1.05;;;;;;;;;;6204930;23;20557;-49
2022/04/13 05:28:53;;;;;;;2.45;1.00;;;;;;;;;;6205962;23;20358;-48
2022/04/13 05:31:20;;;;;;;1.13;0.77;;;;;;;;;;6202555;23;20252;-48
2022/04/13 05:33:46;;;;;;;2.92;1.13;;;;;;;;;;6205307;23;20000;-49
2022/04/13 05:36:13;;;;;;;1.55;0.70;;;;;;;;;;6204006;23;20489;-47
2022/04/13 05:38:40;;;;;;;1.27;0.70;;;;;;;;;;6205951;23;20028;-48
2022/04/13 05:41:06;;;;;;;3.17;1.02;;;;;;;;;;6205528;23;20498;-47
2022/04/13 05:43:34;;;;;;;1.52;0.68;;;;;;;;;;6205128;23;20086;-46
2022/04/13 05:46:01;;;;;;;1.20;0.70;;;;;;;;;;6206458;23;20015;-49
2022/04/13 05:48:27;;;;;;;2.30;0.77;;;;;;;;;;6206491;23;20000;-49
2022/04/13 05:50:53;;;;;;;2.88;0.90;;;;;;;;;;6206589;23;20001;-50
2022/04/13 05:53:19;;;;;;;1.30;0.70;;;;;;;;;;6206695;23;20055;-50
2022/04/13 05:55:45;;;;;;;1.67;0.70;;;;;;;;;;6204684;23;20083;-48
2022/04/13 05:58:11;;;;;;;1.40;0.70;;;;;;;;;;6204434;23;20480;-47
2022/04/13 06:00:39;;;;;;;1.25;0.80;;;;;;;;;;6205868;23;20005;-49
2022/04/13 06:03:06;;;;;;;1.65;0.77;;;;;;;;;;6204751;23;20094;-49
2022/04/13 06:05:32;;;;;;;1.42;0.90;;;;;;;;;;6177794;23;20497;-48
2022/04/13 06:07:58;;;;;;;1.83;1.05;;;;;;;;;;6205260;23;20219;-49
2022/04/13 06:10:24;;;;;;;2.30;0.70;;;;;;;;;;6206781;23;20083;-50
2022/04/13 06:12:50;;;;;;;1.95;0.80;;;;;;;;;;6206487;23;20385;-48
2022/04/13 06:15:16;;;;;;;1.33;0.70;;;;;;;;;;6206762;23;20005;-46
2022/04/13 06:17:42;;;;;;;1.50;0.80;;;;;;;;;;6206851;23;20087;-45
2022/04/13 06:20:09;;;;;;;1.42;1.10;;;;;;;;;;6207421;23;20083;-46
2022/04/13 06:22:39;;;;;;;1.33;0.70;;;;;;;;;;6207866;23;20027;-46
2022/04/13 06:25:05;;;;;;;1.98;1.10;;;;;;;;;;6207185;23;20026;-47
2022/04/13 06:27:31;;;;;;;1.23;0.70;;;;;;;;;;6206614;23;20032;-48
2022/04/13 06:29:57;;;;;;;1.05;0.60;;;;;;;;;;6206479;23;20071;-50
2022/04/13 06:32:31;;;;;;;1.15;0.73;;;;;;;;;;6207749;23;19996;-50
2022/04/13 06:34:58;;;;;;;2.53;0.80;;;;;;;;;;6208914;23;20047;-46
2022/04/13 06:37:25;;;;;;;3.28;0.93;;;;;;;;;;6208358;23;20079;-49
2022/04/13 06:39:51;;;;;;;1.85;0.77;;;;;;;;;;6208718;23;20432;-49
2022/04/13 06:42:17;;;;;;;1.45;0.90;;;;;;;;;;6207465;23;20003;-49
2022/04/13 06:44:43;;;;;;;2.22;0.80;;;;;;;;;;6208368;23;20087;-49
2022/04/13 06:47:09;;;;;;;2.58;0.93;;;;;;;;;;6208644;23;20027;-50
2022/04/13 06:49:35;;;;;;;1.15;0.73;;;;;;;;;;6207624;23;20031;-47
2022/04/13 06:52:01;;;;;;;1.02;0.63;;;;;;;;;;6208640;23;20446;-46
2022/04/13 06:54:28;;;;;;;1.27;0.82;;;;;;;;;;6181443;23;21037;-46
2022/04/13 06:56:54;;;;;;;1.60;0.82;;;;;;;;;;6207749;23;20012;-47
2022/04/13 06:59:20;;;;;;;1.48;0.85;;;;;;;;;;6207265;23;20004;-50
2022/04/13 07:01:46;;;;;;;2.63;0.90;;;;;;;;;;6207977;23;20008;-50
2022/04/13 07:04:12;;;;;;;1.08;0.80;;;;;;;;;;6207790;23;20362;-49
2022/04/13 07:06:38;;;;;;;2.70;1.05;;;;;;;;;;6208947;23;20001;-46
2022/04/13 07:09:04;;;;;;;2.22;0.82;;;;;;;;;;6208340;23;20450;-50
2022/04/13 07:11:31;;;;;;;2.55;1.27;;;;;;;;;;6208072;23;20099;-47
2022/04/13 07:13:57;;;;;;;2.70;0.82;;;;;;;;;;6208377;23;20004;-49
2022/04/13 07:16:23;;;;;;;2.58;1.05;;;;;;;;;;6207866;23;20008;-48
2022/04/13 07:18:49;;;;;;;2.40;1.10;;;;;;;;;;6205517;23;20004;-50
2022/04/13 07:21:15;;;;;;;1.90;0.90;;;;;;;;;;6206442;23;20663;-48
2022/04/13 07:23:42;;;;;;;1.27;0.82;;;;;;;;;;6207787;23;20445;-45
2022/04/13 07:26:09;;;;;;;1.85;0.77;;;;;;;;;;6204983;23;20393;-48
2022/04/13 07:28:35;;;;;;;1.30;0.82;;;;;;;;;;6205865;23;20000;-51
2022/04/13 07:31:01;;;;;;;1.67;0.98;;;;;;;;;;6204401;23;20349;-49
2022/04/13 07:33:27;;;;;;;1.60;0.88;;;;;;;;;;6206154;23;19997;-49
2022/04/13 07:35:54;;;;;;;1.48;0.77;;;;;;;;;;6205386;23;20007;-48
2022/04/13 07:38:21;;;;;;;1.30;0.80;;;;;;;;;;6206202;23;20004;-48
2022/04/13 07:40:48;;;;;;;1.95;0.88;;;;;;;;;;6206302;23;20079;-48
2022/04/13 07:43:15;;;;;;;2.53;1.00;;;;;;;;;;6205692;23;20076;-48
2022/04/13 07:45:43;;;;;;;1.65;0.73;;;;;;;;;;6207037;23;20059;-47
2022/04/13 07:48:09;;;;;;;1.95;1.02;;;;;;;;;;6207262;23;20068;-46
2022/04/13 07:50:36;;;;;;;1.85;0.80;;;;;;;;;;6206155;23;20004;-48
2022/04/13 07:53:02;;;;;;;0.90;0.70;;;;;;;;;;6206128;23;20051;-50
2022/04/13 07:55:28;;;;;;;1.40;0.82;;;;;;;;;;6205964;23;20378;-49
2022/04/13 07:57:54;;;;;;;2.00;0.77;;;;;;;;;;6206343;23;20447;-49
2022/04/13 08:00:21;;;;;;;1.73;0.77;;;;;;;;;;6205893;23;20011;-47
2022/04/13 08:02:47;;;;;;;1.00;0.60;;;;;;;;;;6205801;23;20001;-48
2022/04/13 08:05:13;;;;;;;0.73;0.60;;;;;;;;;;6206229;23;20088;-47
2022/04/13 08:07:40;;;;;;;1.13;0.68;;;;;;;;;;6206648;23;20272;-47
2022/04/13 08:10:06;;;;;;;1.30;0.65;;;;;;;;;;6206056;23;20001;-50
2022/04/13 08:12:32;;;;;;;2.15;0.90;;;;;;;;;;6205987;23;20004;-49
2022/04/13 08:14:59;;;;;;;2.45;0.73;;;;;;;;;;6205887;23;20411;-49
2022/04/13 08:17:26;;;;;;;1.83;0.77;;;;;;;;;;6205920;23;20024;-51
2022/04/13 08:19:52;;;;;;;1.23;0.60;;;;;;;;;;6205922;23;20000;-51
2022/04/13 08:22:28;;;;;;;3.20;1.23;;;;;;;;;;6205337;23;20465;-48
2022/04/13 08:24:55;;;;;;;2.05;0.70;;;;;;;;;;6205912;23;20409;-46
2022/04/13 08:27:21;;;;;;;1.50;0.80;;;;;;;;;;6205410;23;20391;-49
2022/04/13 08:29:47;;;;;;;0.98;0.70;;;;;;;;;;6206014;23;20320;-48
2022/04/13 08:32:17;;;;;;;1.88;0.80;;;;;;;;;;6204862;23;20091;-47
2022/04/13 08:34:44;;;;;;;2.30;0.88;;;;;;;;;;6205468;23;20004;-47
2022/04/13 08:37:10;;;;;;;2.95;1.00;;;;;;;;;;6206264;23;20005;-49
2022/04/13 08:39:36;;;;;;;1.13;0.65;;;;;;;;;;6206001;23;20043;-47
2022/04/13 08:42:32;;;;;;;1.95;0.82;;;;;;;;;;6205464;23;20032;-48
2022/04/13 08:45:01;;;;;;;1.73;0.60;;;;;;;;;;6173789;23;20024;-49
2022/04/13 08:47:28;;;;;;;1.65;0.80;;;;;;;;;;6205520;23;20001;-48
2022/04/13 08:49:55;;;;;;;1.40;0.90;;;;;;;;;;6205685;23;20319;-48
2022/04/13 08:52:24;;;;;;;1.33;0.80;;;;;;;;;;6205243;23;20015;-47
2022/04/13 08:54:53;;;;;;;1.80;0.75;;;;;;;;;;6205667;23;20409;-50
2022/04/13 08:57:21;;;;;;;1.67;0.90;;;;;;;;;;6205279;23;20379;-46
2022/04/13 08:59:56;;;;;;;1.83;0.80;;;;;;;;;;6205545;23;20005;-50
2022/04/13 09:02:28;;;;;;;1.30;0.77;;;;;;;;;;6205403;23;20004;-51
2022/04/13 09:04:59;;;;;;;1.27;0.90;;;;;;;;;;6205377;23;20009;-49
2022/04/13 09:07:27;;;;;;;1.52;0.93;;;;;;;;;;6205067;23;20004;-46
2022/04/13 09:09:54;;;;;;;1.40;0.70;;;;;;;;;;6205547;23;20067;-49
2022/04/13 09:12:22;;;;;;;1.67;0.82;;;;;;;;;;6205209;23;20000;-50
2022/04/13 09:14:48;;;;;;;1.23;0.60;;;;;;;;;;6205487;23;20020;-50
2022/04/13 09:17:15;;;;;;;1.40;0.73;;;;;;;;;;6205200;23;20061;-49
2022/04/13 09:19:41;;;;;;;1.20;0.70;;;;;;;;;;6205889;23;20135;-48
2022/04/13 09:22:08;;;;;;;1.20;0.60;;;;;;;;;;6205091;23;20008;-49
2022/04/13 09:24:36;;;;;;;1.80;0.95;;;;;;;;;;6205937;23;20004;-49
2022/04/13 09:27:04;;;;;;;1.67;0.75;;;;;;;;;;6178528;23;20012;-49
2022/04/13 09:29:30;;;;;;;1.80;0.82;;;;;;;;;;6204963;23;20000;-49
2022/04/13 09:31:56;;;;;;;1.48;0.75;;;;;;;;;;6205084;23;20007;-51
2022/04/13 09:34:23;;;;;;;2.03;1.00;;;;;;;;;;6205087;23;19996;-48
2022/04/13 09:36:49;;;;;;;1.80;0.90;;;;;;;;;;6204912;23;20012;-50
2022/04/13 09:39:20;;;;;;;2.58;1.15;;;;;;;;;;6205035;23;20571;-47
2022/04/13 09:41:46;;;;;;;2.20;0.98;;;;;;;;;;6204766;23;20458;-48
2022/04/13 09:44:15;;;;;;;1.02;0.82;;;;;;;;;;6205722;23;20004;-51
2022/04/13 09:46:43;;;;;;;1.77;0.82;;;;;;;;;;6205781;23;20012;-48
2022/04/13 09:49:10;;;;;;;1.30;0.70;;;;;;;;;;6205314;23;20005;-49
2022/04/13 09:51:40;;;;;;;0.52;0.47;;;;;;;;;;6205130;23;20004;-49
2022/04/13 09:54:10;;;;;;;1.15;0.70;;;;;;;;;;6205262;23;20079;-49
2022/04/13 09:56:40;;;;;;;1.52;0.60;;;;;;;;;;6205038;23;20009;-51
2022/04/13 09:59:07;;;;;;;0.93;0.70;;;;;;;;;;6205237;23;20062;-46
2022/04/13 10:01:34;;;;;;;1.17;0.70;;;;;;;;;;6204780;23;20005;-47
2022/04/13 10:04:01;;;;;;;1.40;0.50;;;;;;;;;;6205035;23;20672;-50
2022/04/13 10:06:28;;;;;;;2.70;0.90;;;;;;;;;;6204683;23;20012;-50
2022/04/13 10:08:59;;;;;;;1.63;0.73;;;;;;;;;;6205134;23;20009;-49
2022/04/13 10:11:25;;;;;;;3.08;0.98;;;;;;;;;;6204805;23;20397;-48
2022/04/13 10:13:51;;;;;;;0.70;0.60;;;;;;;;;;6205437;23;20009;-50
2022/04/13 10:16:18;;;;;;;1.90;0.90;;;;;;;;;;6204444;23;20011;-48
2022/04/13 10:19:01;;;;;;;1.33;0.85;;;;;;;;;;6204958;23;20000;-48
2022/04/13 10:21:34;;;;;;;1.40;0.80;;;;;;;;;;6204498;23;20004;-50
2022/04/13 10:24:01;;;;;;;3.03;1.00;;;;;;;;;;6204674;23;20005;-46
2022/04/13 10:26:27;;;;;;;1.90;0.80;;;;;;;;;;6204515;23;20004;-49
2022/04/13 10:28:53;;;;;;;3.60;1.20;;;;;;;;;;6205563;23;20370;-49
2022/04/13 10:31:19;;;;;;;2.05;1.02;;;;;;;;;;6204190;23;20131;-50
2022/04/13 10:33:51;;;;;;;1.45;0.90;;;;;;;;;;6204592;23;20120;-46
2022/04/13 10:36:19;;;;;;;2.25;1.00;;;;;;;;;;6204273;23;20005;-49
2022/04/13 10:38:47;;;;;;;1.08;0.88;;;;;;;;;;6205124;23;20084;-47
2022/04/13 10:41:17;;;;;;;1.38;0.80;;;;;;;;;;6204596;23;20009;-45
2022/04/13 10:43:50;;;;;;;3.45;1.30;;;;;;;;;;6204846;23;20456;-47
2022/04/13 10:46:20;;;;;;;3.80;1.47;;;;;;;;;;6204468;23;20009;-47
2022/04/13 10:48:51;;;;;;;2.38;1.10;;;;;;;;;;6204927;23;20008;-48
2022/04/13 10:51:23;;;;;;;2.83;1.10;;;;;;;;;;6204768;23;20442;-48
2022/04/13 10:53:50;;;;;;;1.83;1.00;;;;;;;;;;6204981;23;20001;-48
2022/04/13 10:56:20;;;;;;;1.77;0.80;;;;;;;;;;6205363;23;20134;-51
2022/04/13 10:59:02;;;;;;;1.17;1.00;;;;;;;;;;6206565;23;20009;-47
2022/04/13 11:01:48;;;;;;;0.73;0.60;;;;;;;;;;6206196;23;20009;-50
2022/04/13 11:04:16;;;;;;;1.13;0.88;;;;;;;;;;6130838;23;20012;-48
2022/04/13 11:06:45;;;;;;;3.25;0.80;;;;;;;;;;6207494;23;20385;-47
2022/04/13 11:09:25;;;;;;;0.85;0.50;;;;;;;;;;6207156;23;20068;-49
2022/04/13 11:11:52;;;;;;;0.70;0.45;;;;;;;;;;6206658;23;20004;-51
2022/04/13 11:14:21;;;;;;;0.95;0.60;;;;;;;;;;6206203;23;20390;-46
2022/04/13 11:16:52;;;;;;;0.82;0.70;;;;;;;;;;6206391;23;20076;-46
2022/04/13 11:19:19;;;;;;;2.20;0.60;;;;;;;;;;6206308;23;20005;-48
2022/04/13 11:21:51;;;;;;;0.70;0.43;;;;;;;;;;6206199;23;20516;-50
2022/04/13 11:24:37;;;;;;;0.40;0.40;;;;;;;;;;6206222;23;20011;-49
2022/04/13 11:27:03;;;;;;;1.38;0.80;;;;;;;;;;6206914;23;20004;-50
2022/04/13 11:29:33;;;;;;;0.70;0.50;;;;;;;;;;6204406;23;20012;-50
2022/04/13 11:32:02;;;;;;;0.85;0.60;;;;;;;;;;6206647;23;20043;-50
2022/04/13 11:34:32;;;;;;;0.88;0.57;;;;;;;;;;6205441;23;20004;-49
2022/04/13 11:37:01;;;;;;;0.57;0.45;;;;;;;;;;6206485;23;20013;-49
2022/04/13 11:39:46;;;;;;;0.57;0.50;;;;;;;;;;6205587;23;20028;-48
2022/04/13 11:42:16;;;;;;;1.38;0.65;;;;;;;;;;6206181;23;20008;-47
2022/04/13 11:44:49;;;;;;;0.85;0.50;;;;;;;;;;6206506;23;20088;-48
2022/04/13 11:47:19;;;;;;;0.82;0.50;;;;;;;;;;6206234;23;20004;-48
2022/04/13 11:49:56;;;;;;;1.13;0.70;;;;;;;;;;6206592;23;19997;-49
2022/04/13 11:52:44;;;;;;;1.65;0.88;;;;;;;;;;6205906;23;20464;-49
2022/04/13 11:55:17;;;;;;;1.77;0.80;;;;;;;;;;6206386;23;20080;-50
2022/04/13 11:58:02;;;;;;;1.70;1.00;;;;;;;;;;6206160;23;20001;-48
2022/04/13 12:00:49;;;;;;;1.58;1.00;;;;;;;;;;6205999;23;20001;-46
2022/04/13 12:03:16;;;;;;;2.00;0.80;;;;;;;;;;6205285;23;19997;-48
2022/04/13 12:05:44;;;;;;;2.97;0.90;;;;;;;;;;6205912;23;20011;-47
2022/04/13 12:08:13;;;;;;;2.10;0.98;;;;;;;;;;6206413;23;20047;-49
2022/04/13 12:10:44;;;;;;;1.58;0.90;;;;;;;;;;6206570;23;20076;-47
2022/04/13 12:13:10;;;;;;;2.33;1.10;;;;;;;;;;6179551;23;20272;-50
2022/04/13 12:15:43;;;;;;;2.20;1.10;;;;;;;;;;6206585;23;20015;-48
2022/04/13 12:18:11;;;;;;;3.23;0.87;;;;;;;;;;6206230;23;20004;-49
2022/04/13 12:20:38;;;;;;;1.73;0.80;;;;;;;;;;6206730;23;20062;-49
2022/04/13 12:23:15;;;;;;;2.47;0.80;;;;;;;;;;6205868;23;20529;-49
2022/04/13 12:25:46;;;;;;;0.93;0.60;;;;;;;;;;6205559;23;20096;-51
2022/04/13 12:28:13;;;;;;;0.90;0.70;;;;;;;;;;6205595;23;20028;-50
2022/04/13 12:30:39;;;;;;;1.08;0.65;;;;;;;;;;6206637;23;20004;-50
2022/04/13 12:33:21;;;;;;;2.22;0.63;;;;;;;;;;6205702;23;20123;-49
2022/04/13 12:35:50;;;;;;;3.08;0.80;;;;;;;;;;6205616;23;20458;-51
2022/04/13 12:38:22;;;;;;;0.70;0.65;;;;;;;;;;6205595;23;20012;-49
2022/04/13 12:40:48;;;;;;;0.70;0.60;;;;;;;;;;6205830;23;20005;-51
2022/04/13 12:43:27;;;;;;;0.75;0.57;;;;;;;;;;6205221;23;20013;-50
2022/04/13 12:45:54;;;;;;;1.02;0.57;;;;;;;;;;6205701;23;20028;-48
2022/04/13 12:48:29;;;;;;;0.93;0.63;;;;;;;;;;6205669;23;20000;-50
2022/04/13 12:50:56;;;;;;;0.77;0.40;;;;;;;;;;6205631;23;20020;-47
2022/04/13 12:53:22;;;;;;;0.93;0.70;;;;;;;;;;6205268;23;20350;-50
2022/04/13 12:55:55;;;;;;;1.17;0.68;;;;;;;;;;6205209;23;20001;-51
2022/04/13 12:58:21;;;;;;;0.85;0.60;;;;;;;;;;6205424;23;20008;-47
2022/04/13 13:00:54;;;;;;;0.90;0.60;;;;;;;;;;6205306;23;20454;-50
2022/04/13 13:03:21;;;;;;;0.90;0.60;;;;;;;;;;6205050;23;20004;-47
2022/04/13 13:05:48;;;;;;;0.77;0.55;;;;;;;;;;6205494;23;20143;-50
2022/04/13 13:08:14;;;;;;;2.83;0.57;;;;;;;;;;6204992;23;20009;-49
2022/04/13 13:10:44;;;;;;;0.50;0.50;;;;;;;;;;6206192;23;20023;-51
2022/04/13 13:13:17;;;;;;;0.70;0.60;;;;;;;;;;6205952;23;20003;-49
2022/04/13 13:15:43;;;;;;;0.60;0.60;;;;;;;;;;6205431;23;20096;-49
2022/04/13 13:18:09;;;;;;;1.63;0.60;;;;;;;;;;6205669;23;20352;-48
2022/04/13 13:20:52;;;;;;;0.60;0.55;;;;;;;;;;6205173;23;20327;-48
2022/04/13 13:23:23;;;;;;;0.90;0.70;;;;;;;;;;6204471;23;20561;-51
2022/04/13 13:25:49;;;;;;;1.15;0.68;;;;;;;;;;6205216;23;20054;-48
2022/04/13 13:28:15;;;;;;;1.90;0.60;;;;;;;;;;6204024;23;20385;-50
2022/04/13 13:30:41;;;;;;;0.88;0.60;;;;;;;;;;6205809;23;20036;-50
2022/04/13 13:33:11;;;;;;;0.50;0.50;;;;;;;;;;6204556;23;20469;-50
2022/04/13 13:35:37;;;;;;;0.80;0.57;;;;;;;;;;6205392;23;20005;-50
2022/04/13 13:38:07;;;;;;;0.50;0.40;;;;;;;;;;6205484;23;20019;-48
2022/04/13 13:40:35;;;;;;;1.42;0.77;;;;;;;;;;6205194;23;20000;-49
2022/04/13 13:43:02;;;;;;;0.50;0.40;;;;;;;;;;6204928;23;20009;-48
2022/04/13 13:45:29;;;;;;;0.52;0.40;;;;;;;;;;6204903;23;20016;-47
2022/04/13 13:47:55;;;;;;;0.98;0.57;;;;;;;;;;6205000;23;20508;-51
2022/04/13 13:50:21;;;;;;;0.60;0.50;;;;;;;;;;6206095;23;20062;-50
2022/04/13 13:52:47;;;;;;;1.48;0.50;;;;;;;;;;6204701;23;20488;-46
2022/04/13 13:55:22;;;;;;;1.50;0.60;;;;;;;;;;6204501;23;20001;-48
2022/04/13 13:57:49;;;;;;;1.05;0.73;;;;;;;;;;6205205;23;20005;-49
2022/04/13 14:00:15;;;;;;;0.70;0.50;;;;;;;;;;6204550;23;20016;-49
2022/04/13 14:02:41;;;;;;;0.95;0.43;;;;;;;;;;6205289;23;20007;-49
2022/04/13 14:05:07;;;;;;;0.63;0.52;;;;;;;;;;6204800;23;20040;-50
2022/04/13 14:07:35;;;;;;;0.57;0.40;;;;;;;;;;6205005;23;20458;-49
2022/04/13 14:10:02;;;;;;;0.98;0.60;;;;;;;;;;6205217;23;20005;-51
2022/04/13 14:12:28;;;;;;;0.45;0.45;;;;;;;;;;6204537;23;20004;-48
2022/04/13 14:14:56;;;;;;;0.52;0.40;;;;;;;;;;6205183;23;20308;-48
2022/04/13 14:17:22;;;;;;;0.77;0.47;;;;;;;;;;6205473;23;20016;-51
2022/04/13 14:19:48;;;;;;;0.60;0.45;;;;;;;;;;6205002;23;20012;-49
2022/04/13 14:22:14;;;;;;;1.83;0.65;;;;;;;;;;6204595;23;20429;-49
2022/04/13 14:24:40;;;;;;;2.15;0.65;;;;;;;;;;6204796;23;20004;-50
2022/04/13 14:27:07;;;;;;;1.42;0.50;;;;;;;;;;6205122;23;20019;-47
2022/04/13 14:29:33;;;;;;;0.50;0.50;;;;;;;;;;6204900;23;20466;-49
2022/04/13 14:31:59;;;;;;;1.05;0.60;;;;;;;;;;6206481;23;20004;-49
2022/04/13 14:34:25;;;;;;;1.48;0.70;;;;;;;;;;6206562;23;20023;-49
2022/04/13 14:36:52;;;;;;;1.02;0.65;;;;;;;;;;6208009;23;20617;-50
2022/04/13 14:39:19;;;;;;;0.93;0.60;;;;;;;;;;6206263;23;20272;-48
2022/04/13 14:41:45;;;;;;;3.25;0.80;;;;;;;;;;6206719;23;20008;-46
2022/04/13 14:44:11;;;;;;;0.47;0.47;;;;;;;;;;6206410;23;20531;-48
2022/04/13 14:46:38;;;;;;;0.63;0.55;;;;;;;;;;6207133;23;20005;-46